Time;durP1;ratioP1;P1;durP2;ratioP2;P2;SDS_P1;SDS_P2;PMS_P1;PMS_P2;Temp;Humidity;BMP_temperature;BMP_pressure;BME280_temperature;BME280_humidity;BME280_pressure;Samples;Min_cycle;Max_cycle;Signal;HPM_P1;HPM_P2
2024/02/07 00:00:25;;;;;;;0.90;0.40;;;7.90;1.00;;;;;;5074850;28;20455;-56
2024/02/07 00:02:51;;;;;;;1.40;0.30;;;8.20;99.90;;;;;;5074780;28;20524;-51
2024/02/07 00:05:20;;;;;;;0.60;0.30;;;8.00;99.90;;;;;;5075118;28;20553;-54
2024/02/07 00:07:47;;;;;;;0.70;0.30;;;8.10;1.00;;;;;;5074981;28;20435;-54
2024/02/07 00:10:14;;;;;;;1.60;0.40;;;8.00;1.00;;;;;;5081451;28;20469;-57
2024/02/07 00:12:41;;;;;;;0.60;0.40;;;7.90;29.00;;;;;;5098589;28;20467;-54
2024/02/07 00:15:08;;;;;;;0.90;0.30;;;8.00;99.90;;;;;;5098682;28;20753;-54
2024/02/07 00:17:35;;;;;;;1.13;0.30;;;8.00;1.00;;;;;;5098864;28;20414;-53
2024/02/07 00:20:02;;;;;;;1.05;0.40;;;7.90;1.00;;;;;;5099396;28;20426;-54
2024/02/07 00:22:31;;;;;;;0.63;0.30;;;7.80;1.00;;;;;;5098931;28;20428;-54
2024/02/07 00:24:58;;;;;;;1.73;0.30;;;7.80;1.00;;;;;;5098627;28;20522;-56
2024/02/07 00:27:24;;;;;;;1.08;0.30;;;7.80;1.00;;;;;;5098597;28;20457;-55
2024/02/07 00:29:51;;;;;;;1.90;0.40;;;7.70;99.90;;;;;;5099107;28;20472;-53
2024/02/07 00:32:18;;;;;;;2.90;0.40;;;7.70;1.00;;;;;;5098322;28;20472;-55
2024/02/07 00:34:45;;;;;;;1.67;0.30;;;7.70;1.00;;;;;;5098261;28;20461;-56
2024/02/07 00:37:12;;;;;;;1.05;0.30;;;7.70;1.00;;;;;;5099067;28;20461;-54
2024/02/07 00:39:40;;;;;;;1.20;0.30;;;7.70;99.90;;;;;;5098646;28;20482;-52
2024/02/07 00:42:07;;;;;;;0.70;0.30;;;7.70;1.00;;;;;;5098766;28;20812;-55
2024/02/07 00:44:34;;;;;;;0.80;0.40;;;7.80;99.90;;;;;;5098045;28;20421;-54
2024/02/07 00:47:01;;;;;;;0.52;0.30;;;7.70;1.00;;;;;;5098555;28;20465;-55
2024/02/07 00:49:28;;;;;;;1.10;0.35;;;7.60;1.00;;;;;;5099050;28;20460;-53
2024/02/07 00:51:55;;;;;;;0.77;0.40;;;7.70;1.00;;;;;;5095326;28;20482;-56
2024/02/07 00:54:24;;;;;;;0.60;0.37;;;7.70;1.00;;;;;;5094349;28;20457;-53
2024/02/07 00:56:55;;;;;;;0.70;0.40;;;7.80;1.00;;;;;;5099214;28;20434;-55
2024/02/07 00:59:22;;;;;;;1.10;0.40;;;7.80;99.90;;;;;;5098606;28;20486;-55
2024/02/07 01:01:50;;;;;;;0.90;0.30;;;7.80;99.90;;;;;;5098523;28;20777;-53
2024/02/07 01:04:18;;;;;;;1.10;0.38;;;7.80;99.90;;;;;;5098707;28;20892;-56
2024/02/07 01:06:44;;;;;;;0.90;0.40;;;7.80;99.90;;;;;;5098543;28;20418;-50
2024/02/07 01:09:12;;;;;;;0.80;0.40;;;7.70;99.90;;;;;;5097585;28;20531;-56
2024/02/07 01:11:39;;;;;;;1.05;0.40;;;7.70;1.00;;;;;;5098813;28;20525;-55
2024/02/07 01:14:07;;;;;;;0.60;0.40;;;7.70;1.00;;;;;;5098150;28;20425;-54
2024/02/07 01:16:34;;;;;;;0.60;0.30;;;7.80;1.00;;;;;;5097953;28;20418;-55
2024/02/07 01:19:01;;;;;;;0.88;0.40;;;7.80;1.00;;;;;;5098144;28;20888;-56
2024/02/07 01:21:28;;;;;;;0.63;0.35;;;7.80;1.00;;;;;;5096390;28;20406;-55
2024/02/07 01:23:55;;;;;;;0.80;0.40;;;7.80;1.00;;;;;;5097962;28;20410;-54
2024/02/07 01:26:22;;;;;;;1.23;0.38;;;7.70;1.00;;;;;;5097473;28;20555;-54
2024/02/07 01:28:50;;;;;;;1.20;0.40;;;7.80;99.90;;;;;;5097514;28;20449;-50
2024/02/07 01:31:23;;;;;;;0.60;0.30;;;7.80;99.90;;;;;;5097603;28;20440;-53
2024/02/07 01:33:50;;;;;;;0.70;0.30;;;7.70;1.00;;;;;;5097994;28;20421;-48
2024/02/07 01:36:17;;;;;;;0.80;0.40;;;7.80;1.00;;;;;;5098094;28;20453;-50
2024/02/07 01:38:44;;;;;;;0.50;0.30;;;7.80;26.40;;;;;;5097668;28;20413;-55
2024/02/07 01:41:11;;;;;;;1.30;0.40;;;7.80;99.90;;;;;;5097499;28;20509;-53
2024/02/07 01:43:38;;;;;;;0.70;0.30;;;7.80;99.90;;;;;;5096285;28;20422;-54
2024/02/07 01:46:05;;;;;;;1.40;0.40;;;7.80;98.40;;;;;;5097106;28;20514;-54
2024/02/07 01:48:34;;;;;;;0.70;0.40;;;7.80;78.30;;;;;;5078214;28;20762;-51
2024/02/07 01:51:06;;;;;;;0.75;0.32;;;7.70;99.90;;;;;;5096613;28;20813;-55
2024/02/07 01:53:34;;;;;;;1.30;0.40;;;7.70;99.90;;;;;;5097042;28;20504;-54
2024/02/07 01:56:02;;;;;;;0.70;0.40;;;7.80;1.00;;;;;;5096914;28;20428;-53
2024/02/07 01:58:31;;;;;;;1.40;0.40;;;7.70;1.00;;;;;;5097607;28;20428;-54
2024/02/07 02:00:59;;;;;;;1.10;0.40;;;7.80;99.90;;;;;;5096524;28;20421;-55
2024/02/07 02:03:26;;;;;;;0.60;0.40;;;7.70;99.90;;;;;;5096060;28;20839;-51
2024/02/07 02:05:55;;;;;;;1.20;0.40;;;7.80;99.90;;;;;;5095839;28;20476;-54
2024/02/07 02:08:23;;;;;;;1.15;0.40;;;7.80;99.90;;;;;;5095768;28;20426;-54
2024/02/07 02:10:56;;;;;;;0.70;0.35;;;8.00;99.90;;;;;;5094361;28;20421;-53
2024/02/07 02:13:23;;;;;;;1.60;0.40;;;7.90;80.00;;;;;;5094817;28;20551;-51
2024/02/07 02:15:50;;;;;;;0.80;0.40;;;8.00;99.90;;;;;;5095801;28;20460;-53
2024/02/07 02:18:17;;;;;;;0.90;0.30;;;8.10;99.90;;;;;;5095280;28;20468;-53
2024/02/07 02:20:44;;;;;;;0.70;0.40;;;8.00;9.40;;;;;;5095169;28;20840;-52
2024/02/07 02:23:32;;;;;;;1.17;0.40;;;8.00;43.10;;;;;;5095487;28;20413;-51
2024/02/07 02:26:35;;;;;;;2.47;0.40;;;7.90;99.90;;;;;;5095217;28;20434;-49
2024/02/07 02:29:20;;;;;;;0.90;0.30;;;7.90;1.00;;;;;;5095246;28;20525;-52
2024/02/07 02:31:53;;;;;;;0.68;0.30;;;7.80;1.00;;;;;;5096176;28;20557;-56
2024/02/07 02:34:20;;;;;;;0.70;0.40;;;7.90;1.00;;;;;;5094546;28;20748;-53
2024/02/07 02:36:48;;;;;;;1.95;0.40;;;7.80;1.00;;;;;;5096259;28;20796;-53
2024/02/07 02:39:15;;;;;;;0.80;0.40;;;7.90;1.00;;;;;;5096035;28;20433;-53
2024/02/07 02:41:42;;;;;;;0.70;0.40;;;7.80;1.00;;;;;;5096277;28;20552;-55
2024/02/07 02:44:09;;;;;;;0.57;0.30;;;7.80;1.00;;;;;;5096212;28;20483;-55
2024/02/07 02:46:37;;;;;;;0.80;0.40;;;7.80;1.00;;;;;;5096237;28;20770;-52
2024/02/07 02:49:04;;;;;;;2.80;0.40;;;7.90;1.00;;;;;;5095953;28;20515;-53
2024/02/07 02:51:31;;;;;;;2.60;0.40;;;7.90;1.00;;;;;;5095924;28;20451;-52
2024/02/07 02:53:58;;;;;;;0.70;0.40;;;8.00;1.00;;;;;;5095381;28;20762;-53
2024/02/07 02:56:26;;;;;;;0.80;0.30;;;8.10;1.00;;;;;;5096189;28;20422;-55
2024/02/07 02:58:53;;;;;;;0.90;0.40;;;8.10;1.00;;;;;;5095320;28;20831;-56
2024/02/07 03:01:20;;;;;;;0.90;0.40;;;8.10;1.00;;;;;;5095221;28;20537;-55
2024/02/07 03:03:54;;;;;;;0.68;0.30;;;8.10;1.00;;;;;;5095207;28;20425;-55
2024/02/07 03:06:29;;;;;;;0.73;0.40;;;8.00;1.00;;;;;;5095530;28;20826;-55
2024/02/07 03:09:06;;;;;;;1.63;0.30;;;8.10;1.00;;;;;;5095847;28;20483;-55
2024/02/07 03:11:33;;;;;;;2.83;0.40;;;8.20;1.00;;;;;;5095804;28;20509;-54
2024/02/07 03:14:04;;;;;;;0.70;0.40;;;8.30;1.00;;;;;;5095857;28;20421;-54
2024/02/07 03:16:31;;;;;;;0.70;0.40;;;8.30;1.00;;;;;;5095864;28;20524;-55
2024/02/07 03:18:59;;;;;;;0.60;0.30;;;8.30;1.00;;;;;;5095545;28;20429;-56
2024/02/07 03:21:26;;;;;;;0.60;0.30;;;8.30;99.90;;;;;;5095523;28;20501;-56
2024/02/07 03:23:55;;;;;;;0.70;0.40;;;8.30;99.90;;;;;;5095752;28;20471;-55
2024/02/07 03:26:23;;;;;;;0.75;0.30;;;8.30;1.00;;;;;;5096086;28;20913;-54
2024/02/07 03:28:51;;;;;;;1.40;0.50;;;8.30;1.00;;;;;;5096238;28;20436;-55
2024/02/07 03:31:18;;;;;;;0.68;0.30;;;8.40;99.90;;;;;;5095826;28;20426;-54
2024/02/07 03:33:45;;;;;;;1.42;0.40;;;8.30;99.90;;;;;;5095823;28;20705;-54
2024/02/07 03:36:15;;;;;;;0.65;0.40;;;8.30;1.00;;;;;;5095898;28;20797;-55
2024/02/07 03:38:42;;;;;;;0.80;0.40;;;8.20;1.00;;;;;;5095592;28;20453;-52
2024/02/07 03:41:09;;;;;;;0.80;0.40;;;8.30;1.00;;;;;;5096088;28;20746;-53
2024/02/07 03:43:36;;;;;;;1.60;0.40;;;8.20;1.00;;;;;;5095974;28;20450;-57
2024/02/07 03:46:05;;;;;;;0.80;0.30;;;8.20;1.00;;;;;;5094718;28;20464;-54
2024/02/07 03:48:32;;;;;;;1.80;0.38;;;8.20;1.00;;;;;;5095278;28;20497;-55
2024/02/07 03:50:59;;;;;;;1.20;0.30;;;8.20;1.00;;;;;;5094738;28;20445;-54
2024/02/07 03:53:28;;;;;;;1.00;0.40;;;8.20;1.00;;;;;;5095022;28;20461;-54
2024/02/07 03:55:55;;;;;;;2.00;0.40;;;8.20;1.00;;;;;;5095868;28;20429;-55
2024/02/07 03:58:24;;;;;;;0.60;0.30;;;8.20;1.00;;;;;;5095765;28;20461;-55
2024/02/07 04:00:51;;;;;;;1.00;0.40;;;8.30;1.00;;;;;;5094978;28;20823;-55
2024/02/07 04:03:18;;;;;;;0.70;0.30;;;8.30;1.00;;;;;;5095689;28;20849;-55
2024/02/07 04:05:45;;;;;;;1.60;0.40;;;8.40;1.00;;;;;;5094689;28;20429;-55
2024/02/07 04:08:13;;;;;;;1.40;0.40;;;8.40;1.00;;;;;;5096097;28;20421;-54
2024/02/07 04:10:42;;;;;;;0.70;0.30;;;8.40;1.00;;;;;;5095062;28;20426;-55
2024/02/07 05:15:58;;;;;;;0.60;0.30;;;9.00;1.00;;;;;;5096977;28;20455;-56
2024/02/07 05:18:24;;;;;;;0.70;0.30;;;9.00;1.00;;;;;;5087356;28;20431;-57
2024/02/07 05:20:51;;;;;;;0.63;0.30;;;9.00;1.00;;;;;;5077993;28;20447;-55
2024/02/07 05:23:19;;;;;;;0.52;0.30;;;9.00;99.90;;;;;;5077762;28;20849;-56
2024/02/07 05:25:47;;;;;;;0.60;0.40;;;9.00;99.90;;;;;;5078384;28;20438;-56
2024/02/07 05:28:14;;;;;;;2.08;0.40;;;9.20;19.70;;;;;;5078204;28;20463;-57
2024/02/07 05:30:41;;;;;;;0.60;0.35;;;9.10;1.00;;;;;;5077471;28;20419;-55
2024/02/07 05:33:10;;;;;;;0.68;0.30;;;9.00;1.00;;;;;;5077513;28;20453;-55
2024/02/07 05:35:37;;;;;;;0.98;0.40;;;8.90;99.90;;;;;;5078257;28;20522;-55
2024/02/07 05:38:04;;;;;;;0.77;0.40;;;8.90;99.90;;;;;;5076871;28;20537;-55
2024/02/07 05:40:31;;;;;;;1.00;0.50;;;8.80;99.90;;;;;;5085116;28;20464;-58
2024/02/07 05:43:00;;;;;;;0.55;0.32;;;8.70;1.00;;;;;;5097876;28;20481;-58
2024/02/07 05:45:27;;;;;;;0.80;0.40;;;8.90;99.90;;;;;;5079439;28;20414;-58
2024/02/07 05:47:53;;;;;;;0.80;0.40;;;8.90;1.00;;;;;;5096638;28;20449;-57
2024/02/07 05:50:22;;;;;;;2.30;0.40;;;9.10;1.00;;;;;;5096290;28;20464;-58
2024/02/07 05:52:49;;;;;;;0.60;0.33;;;9.00;99.90;;;;;;5086714;28;20679;-58
2024/02/07 05:55:16;;;;;;;1.00;0.50;;;9.00;99.90;;;;;;5079336;28;20466;-57
2024/02/07 05:57:43;;;;;;;3.50;0.40;;;8.90;99.90;;;;;;5079215;28;20494;-58
2024/02/07 06:00:11;;;;;;;1.20;0.40;;;9.00;99.90;;;;;;5096759;28;20483;-57
2024/02/07 06:02:39;;;;;;;1.57;0.50;;;9.10;99.90;;;;;;5097875;28;20432;-59
2024/02/07 06:05:06;;;;;;;0.90;0.40;;;9.00;24.60;;;;;;5096659;28;20488;-59
2024/02/07 06:07:35;;;;;;;1.40;0.40;;;8.90;99.90;;;;;;5095972;28;20413;-58
2024/02/07 06:10:02;;;;;;;0.80;0.40;;;8.80;99.90;;;;;;5095237;28;20457;-58
2024/02/07 06:12:30;;;;;;;0.60;0.40;;;8.90;99.90;;;;;;5082664;28;20455;-59
2024/02/07 06:14:58;;;;;;;0.80;0.40;;;8.80;1.00;;;;;;5076822;28;20446;-59
2024/02/07 06:17:26;;;;;;;0.70;0.38;;;8.90;99.90;;;;;;5090471;28;20510;-58
2024/02/07 06:19:53;;;;;;;1.17;0.40;;;8.80;1.00;;;;;;5074745;28;20886;-58
2024/02/07 06:22:20;;;;;;;1.10;0.38;;;8.80;1.00;;;;;;5092369;28;21097;-59
2024/02/07 06:24:48;;;;;;;1.77;0.40;;;8.70;1.00;;;;;;5077222;28;20435;-59
2024/02/07 06:27:15;;;;;;;1.30;0.40;;;8.70;1.00;;;;;;5077222;28;20473;-58
2024/02/07 06:29:42;;;;;;;0.60;0.30;;;8.80;1.00;;;;;;5088903;28;20496;-58
2024/02/07 06:32:09;;;;;;;1.30;0.45;;;8.80;1.00;;;;;;5080901;28;20731;-58
2024/02/07 06:34:37;;;;;;;1.33;0.40;;;8.70;1.00;;;;;;5080739;28;20447;-58
2024/02/07 06:37:04;;;;;;;1.20;0.30;;;8.70;1.00;;;;;;5075211;28;20842;-58
2024/02/07 06:39:31;;;;;;;0.80;0.40;;;8.70;1.00;;;;;;5075748;28;20702;-58
2024/02/07 06:41:59;;;;;;;0.75;0.40;;;8.70;1.00;;;;;;5083714;28;20505;-58
2024/02/07 06:44:26;;;;;;;1.00;0.40;;;8.80;1.00;;;;;;5078835;28;20527;-58
2024/02/07 06:46:53;;;;;;;0.75;0.40;;;8.80;1.00;;;;;;5077240;28;20597;-58
2024/02/07 06:49:20;;;;;;;0.82;0.50;;;8.80;1.00;;;;;;5080870;28;20432;-58
2024/02/07 06:51:47;;;;;;;1.77;0.40;;;8.80;1.00;;;;;;5085778;28;20516;-58
2024/02/07 06:54:14;;;;;;;0.70;0.43;;;8.90;1.00;;;;;;5089449;28;20487;-58
2024/02/07 06:56:41;;;;;;;1.30;0.40;;;9.00;1.00;;;;;;5085678;28;20528;-59
2024/02/07 06:59:11;;;;;;;1.30;0.50;;;8.90;99.90;;;;;;5091126;28;20465;-59
2024/02/07 07:01:38;;;;;;;0.80;0.45;;;8.90;99.90;;;;;;5088055;28;20426;-59
2024/02/07 07:04:05;;;;;;;1.30;0.40;;;9.00;99.90;;;;;;5086529;28;20524;-59
2024/02/07 07:06:32;;;;;;;0.60;0.40;;;9.00;99.90;;;;;;5077841;28;20451;-59
2024/02/07 07:08:59;;;;;;;0.90;0.40;;;9.00;99.90;;;;;;5093074;28;20460;-59
2024/02/07 07:11:26;;;;;;;0.70;0.40;;;9.10;99.90;;;;;;5092876;28;20474;-58
2024/02/07 07:13:52;;;;;;;1.00;0.40;;;9.30;99.90;;;;;;5090817;28;20528;-58
2024/02/07 07:16:22;;;;;;;1.00;0.40;;;9.30;99.90;;;;;;5078192;28;20519;-59
2024/02/07 07:18:52;;;;;;;0.60;0.40;;;9.30;99.90;;;;;;5083177;28;20469;-59
2024/02/07 07:21:19;;;;;;;1.00;0.40;;;9.30;1.00;;;;;;5073109;28;20462;-59
2024/02/07 07:23:46;;;;;;;1.30;0.40;;;9.30;66.30;;;;;;5080214;28;20470;-59
2024/02/07 07:26:13;;;;;;;0.70;0.40;;;9.30;25.00;;;;;;5080753;28;20465;-59
2024/02/07 07:28:41;;;;;;;0.90;0.50;;;9.40;1.00;;;;;;5081901;28;20447;-59
2024/02/07 07:31:08;;;;;;;2.30;0.50;;;9.40;99.90;;;;;;5080104;28;20465;-58
2024/02/07 07:33:36;;;;;;;0.73;0.40;;;9.50;99.90;;;;;;5080305;28;20505;-59
2024/02/07 07:36:04;;;;;;;1.40;0.50;;;9.50;99.90;;;;;;5087355;28;20470;-59
2024/02/07 07:38:30;;;;;;;1.30;0.40;;;9.50;99.90;;;;;;5077098;28;20460;-59
2024/02/07 07:40:57;;;;;;;1.35;0.50;;;9.70;99.90;;;;;;5081326;28;20444;-59
2024/02/07 07:43:24;;;;;;;0.82;0.40;;;9.50;99.90;;;;;;5073888;28;20481;-59
2024/02/07 07:45:51;;;;;;;1.00;0.40;;;9.50;99.90;;;;;;5074636;28;20874;-60
2024/02/07 07:48:18;;;;;;;1.50;0.60;;;9.50;99.90;;;;;;5084391;28;20820;-60
2024/02/07 07:50:46;;;;;;;1.70;0.50;;;9.50;99.90;;;;;;5091529;28;20410;-60
2024/02/07 07:53:13;;;;;;;2.63;0.60;;;9.40;99.90;;;;;;5091315;28;20514;-59
2024/02/07 07:55:40;;;;;;;1.00;0.50;;;9.50;99.90;;;;;;5073507;28;20890;-60
2024/02/07 07:58:07;;;;;;;1.02;0.40;;;9.50;99.90;;;;;;5073846;28;20431;-59
2024/02/07 08:00:35;;;;;;;2.27;0.50;;;9.50;99.90;;;;;;5072864;28;20467;-59
2024/02/07 08:03:03;;;;;;;1.40;0.50;;;9.50;99.90;;;;;;5073941;28;20463;-58
2024/02/07 08:05:30;;;;;;;1.38;0.40;;;9.50;99.90;;;;;;5079422;28;20410;-58
2024/02/07 08:07:58;;;;;;;0.77;0.40;;;9.60;99.90;;;;;;5094037;28;20549;-59
2024/02/07 08:10:25;;;;;;;2.80;0.40;;;9.60;99.90;;;;;;5094953;28;20422;-58
2024/02/07 08:12:52;;;;;;;2.00;0.50;;;9.60;99.90;;;;;;5093829;28;20881;-59
2024/02/07 08:15:19;;;;;;;1.00;0.50;;;9.70;99.90;;;;;;5092270;28;20453;-59
2024/02/07 08:17:47;;;;;;;1.90;0.50;;;9.90;99.90;;;;;;5081956;28;20858;-60
2024/02/07 08:20:14;;;;;;;1.30;0.50;;;9.80;99.90;;;;;;5082096;28;20428;-61
2024/02/07 08:22:41;;;;;;;1.40;0.40;;;9.70;99.90;;;;;;5086961;28;20469;-59
2024/02/07 08:25:10;;;;;;;1.40;0.50;;;9.80;99.90;;;;;;5074022;28;20473;-59
2024/02/07 08:27:37;;;;;;;0.87;0.40;;;9.70;99.90;;;;;;5088328;28;20549;-59
2024/02/07 08:30:05;;;;;;;1.20;0.50;;;9.70;99.90;;;;;;5092681;28;20445;-59
2024/02/07 08:32:32;;;;;;;2.00;0.50;;;9.90;99.90;;;;;;5093509;28;20765;-59
2024/02/07 08:34:58;;;;;;;1.08;0.40;;;10.00;99.90;;;;;;5095854;28;20506;-59
2024/02/07 08:37:26;;;;;;;0.80;0.40;;;10.00;99.90;;;;;;5089044;28;20536;-59
2024/02/07 08:39:53;;;;;;;0.75;0.30;;;10.00;99.90;;;;;;5086908;28;20861;-59
2024/02/07 08:42:21;;;;;;;1.60;0.40;;;10.20;99.90;;;;;;5083420;28;20520;-59
2024/02/07 08:44:48;;;;;;;1.60;0.40;;;10.10;99.90;;;;;;5082006;28;20435;-59
2024/02/07 08:47:15;;;;;;;1.50;0.50;;;10.10;99.90;;;;;;5090268;28;20418;-59
2024/02/07 08:49:42;;;;;;;1.00;0.40;;;10.00;99.90;;;;;;5093333;28;20472;-59
2024/02/07 08:52:09;;;;;;;1.40;0.50;;;10.00;99.90;;;;;;5088154;28;20457;-59
2024/02/07 08:54:36;;;;;;;0.90;0.40;;;9.90;99.90;;;;;;5092362;28;20821;-59
2024/02/07 08:57:03;;;;;;;0.70;0.45;;;9.90;99.90;;;;;;5089629;28;20428;-59
2024/02/07 08:59:32;;;;;;;1.07;0.40;;;9.90;99.90;;;;;;5085799;28;20448;-60
2024/02/07 09:01:58;;;;;;;1.65;0.40;;;9.90;99.90;;;;;;5082570;28;20469;-60
2024/02/07 09:04:25;;;;;;;1.90;0.40;;;9.90;99.90;;;;;;5094330;28;20465;-59
2024/02/07 09:06:52;;;;;;;1.20;0.40;;;10.00;99.90;;;;;;5085491;28;20830;-61
2024/02/07 09:09:19;;;;;;;1.60;0.50;;;10.10;99.90;;;;;;5079814;28;20473;-61
2024/02/07 09:11:46;;;;;;;1.60;0.40;;;10.00;99.90;;;;;;5071102;28;20507;-61
2024/02/07 09:14:13;;;;;;;1.38;0.50;;;10.10;99.90;;;;;;5067120;28;20469;-61
2024/02/07 09:16:42;;;;;;;2.95;0.50;;;10.10;99.90;;;;;;5062690;28;20475;-61
2024/02/07 09:19:09;;;;;;;2.00;0.50;;;10.00;99.90;;;;;;5074560;28;20493;-61
2024/02/07 09:21:36;;;;;;;0.95;0.40;;;10.00;99.90;;;;;;5054783;28;20469;-61
2024/02/07 09:24:04;;;;;;;0.80;0.40;;;10.00;99.90;;;;;;5062405;28;20781;-61
2024/02/07 09:26:31;;;;;;;0.98;0.50;;;10.10;99.90;;;;;;5075370;28;20507;-61
2024/02/07 09:28:58;;;;;;;1.70;0.50;;;10.20;99.90;;;;;;5059433;28;20432;-62
2024/02/07 09:31:25;;;;;;;1.23;0.40;;;10.10;99.90;;;;;;5060965;28;20687;-62
2024/02/07 09:33:53;;;;;;;1.23;0.50;;;10.20;99.90;;;;;;5055398;28;20476;-62
2024/02/07 09:36:20;;;;;;;1.60;0.40;;;10.20;99.90;;;;;;5058792;28;20835;-61
2024/02/07 09:38:47;;;;;;;0.90;0.40;;;10.20;99.90;;;;;;5073115;28;20538;-61
2024/02/07 09:41:16;;;;;;;1.30;0.50;;;10.30;99.90;;;;;;5069194;28;20470;-61
2024/02/07 09:43:44;;;;;;;1.02;0.50;;;10.20;99.90;;;;;;5055413;28;20431;-62
2024/02/07 09:46:13;;;;;;;1.60;0.50;;;10.30;99.90;;;;;;5060101;28;20471;-65
2024/02/07 09:48:40;;;;;;;1.67;0.50;;;10.20;99.90;;;;;;5062611;28;20443;-64
2024/02/07 09:51:14;;;;;;;1.00;0.40;;;10.20;99.90;;;;;;5072635;28;20498;-62
2024/02/07 09:53:43;;;;;;;2.20;0.50;;;10.20;99.90;;;;;;5074800;28;20423;-63
2024/02/07 09:56:10;;;;;;;1.10;0.50;;;10.30;99.90;;;;;;5066123;28;20483;-61
2024/02/07 09:58:38;;;;;;;1.75;0.50;;;10.30;99.90;;;;;;5069061;28;20459;-62
2024/02/07 10:01:07;;;;;;;1.13;0.50;;;10.40;99.90;;;;;;5074043;28;20435;-63
2024/02/07 10:03:37;;;;;;;1.15;0.50;;;10.40;99.90;;;;;;5073749;28;20806;-63
2024/02/07 10:06:06;;;;;;;1.40;0.60;;;10.40;99.90;;;;;;5074288;28;20435;-63
2024/02/07 10:08:34;;;;;;;0.90;0.40;;;10.40;99.90;;;;;;5070586;28;20765;-59
2024/02/07 10:11:00;;;;;;;1.23;0.50;;;10.40;99.90;;;;;;5074013;28;20432;-59
2024/02/07 10:13:28;;;;;;;0.90;0.45;;;10.40;99.90;;;;;;5072588;28;20442;-59
2024/02/07 10:15:55;;;;;;;1.15;0.40;;;10.40;99.90;;;;;;5073864;28;20534;-59
2024/02/07 10:18:22;;;;;;;1.52;0.40;;;10.40;99.90;;;;;;5073362;28;20890;-60
2024/02/07 10:20:53;;;;;;;1.08;0.40;;;10.50;99.90;;;;;;5073649;28;20486;-59
2024/02/07 10:23:20;;;;;;;0.98;0.38;;;10.60;99.90;;;;;;5074480;28;20436;-59
2024/02/07 10:25:51;;;;;;;1.67;0.40;;;10.60;99.90;;;;;;5074087;28;20451;-59
2024/02/07 10:28:19;;;;;;;1.60;0.50;;;10.60;99.90;;;;;;5060240;28;20439;-59
2024/02/07 10:30:56;;;;;;;0.85;0.43;;;10.60;99.90;;;;;;5068130;28;20485;-59
2024/02/07 10:33:23;;;;;;;1.00;0.50;;;10.60;99.90;;;;;;5061297;28;20443;-59
2024/02/07 10:35:59;;;;;;;1.23;0.40;;;10.60;99.90;;;;;;5069442;28;20802;-59
2024/02/07 10:38:26;;;;;;;1.10;0.50;;;10.70;99.90;;;;;;5065676;28;20528;-59
2024/02/07 10:40:55;;;;;;;1.55;0.50;;;10.80;99.90;;;;;;5068878;28;20472;-59
2024/02/07 10:43:25;;;;;;;0.80;0.40;;;10.80;99.90;;;;;;5068746;28;20474;-59
2024/02/07 10:45:59;;;;;;;0.70;0.40;;;10.80;99.90;;;;;;5069703;28;20949;-59
2024/02/07 10:48:26;;;;;;;0.70;0.43;;;10.80;99.90;;;;;;5070915;28;20512;-59
2024/02/07 10:50:53;;;;;;;1.00;0.50;;;10.70;99.90;;;;;;5071603;28;20460;-59
2024/02/07 10:53:20;;;;;;;1.42;0.40;;;10.80;99.90;;;;;;5073346;28;20474;-60
2024/02/07 10:55:50;;;;;;;1.00;0.50;;;10.80;99.90;;;;;;5065084;28;20452;-59
2024/02/07 10:58:24;;;;;;;0.80;0.40;;;10.80;99.90;;;;;;5066259;28;20956;-62
2024/02/07 11:00:52;;;;;;;0.80;0.40;;;10.90;99.90;;;;;;5061633;28;20841;-59
2024/02/07 11:03:20;;;;;;;0.90;0.50;;;10.90;99.90;;;;;;5069445;28;20447;-59
2024/02/07 11:05:48;;;;;;;1.55;0.40;;;10.90;99.90;;;;;;5067158;28;20445;-59
2024/02/07 11:08:15;;;;;;;0.68;0.40;;;10.90;99.90;;;;;;5069014;28;20929;-60
2024/02/07 11:10:42;;;;;;;1.10;0.40;;;10.90;99.90;;;;;;5059496;28;20862;-63
2024/02/07 11:13:10;;;;;;;0.80;0.40;;;10.80;99.90;;;;;;5062620;28;20439;-61
2024/02/07 11:15:39;;;;;;;0.73;0.40;;;10.90;99.90;;;;;;5068516;28;20916;-62
2024/02/07 11:18:09;;;;;;;1.20;0.40;;;10.80;99.90;;;;;;5071662;28;21849;-61
2024/02/07 11:20:36;;;;;;;0.85;0.30;;;10.80;99.90;;;;;;5069946;28;20446;-62
2024/02/07 11:23:09;;;;;;;1.00;0.40;;;10.90;99.90;;;;;;5070566;28;20853;-62
2024/02/07 11:25:37;;;;;;;1.30;0.40;;;10.90;99.90;;;;;;5067459;28;20494;-62
2024/02/07 11:28:06;;;;;;;1.38;0.40;;;11.00;99.90;;;;;;5071474;28;20439;-62
2024/02/07 11:30:32;;;;;;;0.70;0.40;;;11.10;99.90;;;;;;5071966;28;20486;-62
2024/02/07 11:33:02;;;;;;;0.60;0.30;;;11.00;99.90;;;;;;5071839;28;20518;-62
2024/02/07 11:35:32;;;;;;;0.60;0.40;;;10.90;99.90;;;;;;5072102;28;20493;-62
2024/02/07 11:38:03;;;;;;;1.00;0.40;;;11.00;99.90;;;;;;5059127;28;20491;-62
2024/02/07 11:40:37;;;;;;;2.15;0.50;;;11.10;99.90;;;;;;5071399;28;20443;-61
2024/02/07 11:43:05;;;;;;;1.10;0.50;;;11.20;99.90;;;;;;5068642;28;20564;-62
2024/02/07 11:45:37;;;;;;;1.50;0.40;;;11.20;99.90;;;;;;5057856;28;20672;-62
2024/02/07 11:48:18;;;;;;;2.00;0.40;;;11.30;99.90;;;;;;5064880;28;20445;-63
2024/02/07 11:50:45;;;;;;;0.90;0.50;;;11.30;99.90;;;;;;5069427;28;20563;-62
2024/02/07 11:53:19;;;;;;;1.20;0.40;;;11.40;99.90;;;;;;5064216;28;20867;-59
2024/02/07 11:55:47;;;;;;;1.83;0.40;;;11.40;99.90;;;;;;5070177;28;21028;-60
2024/02/07 11:58:16;;;;;;;2.20;0.40;;;11.50;99.90;;;;;;5071307;28;20492;-63
2024/02/07 12:00:43;;;;;;;0.70;0.30;;;11.60;99.90;;;;;;5068494;28;20457;-59
2024/02/07 12:03:15;;;;;;;1.70;0.40;;;11.70;99.90;;;;;;5066231;28;20447;-58
2024/02/07 12:05:43;;;;;;;1.00;0.30;;;11.70;99.90;;;;;;5071649;28;20460;-59
2024/02/07 12:08:12;;;;;;;0.70;0.30;;;11.70;99.90;;;;;;5071262;28;20631;-59
2024/02/07 12:10:38;;;;;;;0.57;0.30;;;12.00;99.90;;;;;;5073659;28;20551;-59
2024/02/07 12:13:05;;;;;;;0.50;0.30;;;12.10;99.90;;;;;;5075020;28;20479;-59
2024/02/07 12:15:32;;;;;;;0.60;0.30;;;12.20;99.90;;;;;;5075808;28;20431;-59
2024/02/07 12:17:59;;;;;;;0.90;0.32;;;12.40;99.90;;;;;;5072828;28;21071;-60
2024/02/07 12:20:30;;;;;;;0.60;0.30;;;12.50;99.90;;;;;;5070742;28;20699;-60
2024/02/07 12:22:59;;;;;;;1.90;0.40;;;12.60;99.90;;;;;;5071793;28;20458;-59
2024/02/07 12:25:26;;;;;;;2.00;0.40;;;12.30;99.90;;;;;;5076740;28;20431;-57
2024/02/07 12:27:53;;;;;;;0.50;0.30;;;12.20;99.90;;;;;;5075081;28;20451;-58
2024/02/07 12:30:21;;;;;;;2.00;0.30;;;12.30;99.90;;;;;;5072623;28;20479;-57
2024/02/07 12:32:48;;;;;;;0.60;0.30;;;12.30;99.90;;;;;;5071195;28;20436;-58
2024/02/07 12:35:15;;;;;;;1.08;0.30;;;12.40;99.90;;;;;;5074214;28;20462;-57
2024/02/07 12:37:43;;;;;;;0.60;0.30;;;12.30;99.90;;;;;;5074551;28;20477;-56
2024/02/07 12:40:14;;;;;;;0.50;0.20;;;12.30;99.90;;;;;;5070673;28;20466;-57
2024/02/07 12:42:43;;;;;;;1.40;0.30;;;12.30;99.90;;;;;;5068425;28;20537;-58
2024/02/07 12:45:11;;;;;;;0.40;0.20;;;12.20;99.90;;;;;;5074487;28;20451;-59
2024/02/07 12:47:38;;;;;;;1.67;0.22;;;12.20;99.90;;;;;;5065041;28;20427;-58
2024/02/07 12:50:06;;;;;;;0.40;0.20;;;12.10;99.90;;;;;;5074345;28;20435;-58
2024/02/07 12:52:33;;;;;;;0.50;0.20;;;12.10;99.90;;;;;;5067090;28;20443;-58
2024/02/07 12:55:01;;;;;;;1.00;0.20;;;12.10;99.90;;;;;;5075236;28;20489;-55
2024/02/07 12:57:30;;;;;;;0.50;0.20;;;12.00;99.90;;;;;;5068588;28;20492;-59
2024/02/07 13:00:09;;;;;;;0.50;0.25;;;12.00;99.90;;;;;;5075420;28;20466;-59
2024/02/07 13:02:36;;;;;;;0.50;0.20;;;11.90;99.90;;;;;;5065405;28;20844;-59
2024/02/07 13:05:03;;;;;;;0.97;0.30;;;11.90;99.90;;;;;;5073482;28;20535;-59
2024/02/07 13:07:30;;;;;;;0.60;0.30;;;11.90;99.90;;;;;;5064253;28;20812;-59
2024/02/07 13:09:57;;;;;;;0.70;0.20;;;12.00;99.90;;;;;;5075519;28;20467;-59
2024/02/07 13:12:25;;;;;;;0.80;0.30;;;12.00;99.90;;;;;;5069964;28;20436;-59
2024/02/07 13:14:52;;;;;;;0.60;0.30;;;12.00;99.90;;;;;;5070198;28;20618;-59
2024/02/07 13:17:19;;;;;;;0.70;0.30;;;12.00;99.90;;;;;;5071558;28;20727;-59
2024/02/07 13:19:46;;;;;;;0.60;0.30;;;12.10;99.90;;;;;;5070800;28;20884;-58
2024/02/07 13:22:13;;;;;;;0.63;0.30;;;12.10;99.90;;;;;;5070337;28;20793;-58
2024/02/07 13:24:40;;;;;;;0.80;0.20;;;12.20;99.90;;;;;;5062908;28;20470;-58
2024/02/07 13:27:07;;;;;;;0.70;0.30;;;12.10;99.90;;;;;;5068757;28;20528;-59
2024/02/07 13:29:39;;;;;;;0.80;0.30;;;12.00;99.90;;;;;;5068380;28;20567;-59
2024/02/07 13:32:09;;;;;;;0.50;0.20;;;12.00;99.90;;;;;;5069574;28;20439;-60
2024/02/07 13:34:37;;;;;;;0.80;0.20;;;12.00;99.90;;;;;;5075820;28;20841;-60
2024/02/07 13:37:04;;;;;;;0.50;0.30;;;12.00;99.90;;;;;;5074596;28;20459;-60
2024/02/07 13:39:32;;;;;;;0.60;0.30;;;12.10;99.90;;;;;;5072637;28;20415;-60
2024/02/07 13:41:59;;;;;;;0.53;0.30;;;12.10;99.90;;;;;;5073428;28;20481;-60
2024/02/07 13:44:26;;;;;;;0.70;0.30;;;12.20;99.90;;;;;;5067873;28;20823;-60
2024/02/07 13:46:54;;;;;;;0.60;0.30;;;12.10;99.90;;;;;;5069513;28;20486;-60
2024/02/07 13:49:22;;;;;;;0.90;0.30;;;12.10;99.90;;;;;;5071845;28;20459;-60
2024/02/07 13:51:49;;;;;;;0.85;0.30;;;12.00;99.90;;;;;;5073069;28;20455;-60
2024/02/07 13:54:16;;;;;;;1.17;0.30;;;11.80;99.90;;;;;;5071604;28;20424;-60
2024/02/07 13:56:43;;;;;;;1.05;0.30;;;11.80;99.90;;;;;;5062341;28;20934;-60
2024/02/07 13:59:10;;;;;;;1.00;0.30;;;11.70;99.90;;;;;;5053699;28;20530;-60
2024/02/07 14:01:37;;;;;;;0.50;0.20;;;11.80;99.90;;;;;;5056212;28;20494;-61